Terminal Aerodrome Forecast
Issued by NWS

Home | Current Version | Previous Version | Text Only | Print | Product List | Glossary On
Versions: 1 2 3 4 5 6 7 8 9 10 11 12 13 14 15 16 17 18 19 20 21 22 23 24 25 26 27
000
FTUS45 KGJT 201136
TAFRIL
TAF
KRIL 201136Z 2012/2112 VRB03KT P6SM VCSH SCT040 BKN050
     FM201500 28003KT P6SM FEW040 SCT060 BKN090
     FM201900 25010KT P6SM VCTS SCT070CB SCT100
     FM210200 21005KT P6SM BKN100
     FM210600 VRB03KT P6SM SCT100=

USA.gov is the U.S. government's official web portal to all federal, state and local government web resources and services.